CDT,Max TemperatureF,Mean TemperatureF,Min TemperatureF,Max Dew PointF,MeanDew PointF,Min DewpointF,Max Humidity, Mean Humidity, Min Humidity, Max Sea Level PressureIn, Mean Sea Level PressureIn, Min Sea Level PressureIn, Max VisibilityMiles, Mean VisibilityMiles, Min VisibilityMiles, Max Wind SpeedMPH, Mean Wind SpeedMPH, Max Gust SpeedMPH,PrecipitationIn, CloudCover, Events, WindDirDegrees
2013-3-1,32,24,17,19,14,7,74,61,46,30.29,30.22,30.15,10,10,10,17,12,28,0.00,4,,29
2013-3-2,32,20,8,12,8,3,79,62,32,30.27,30.20,30.15,10,10,10,8,3,,0.00,0,,20
2013-3-3,32,18,3,10,6,-2,85,63,32,30.16,30.11,30.06,10,10,10,6,1,,0.00,0,,142
2013-3-4,32,18,3,19,11,-2,85,72,55,30.15,30.12,30.09,10,10,10,10,2,,0.00,2,,85
2013-3-5,32,28,24,23,20,14,80,69,55,30.12,30.05,29.98,10,10,10,18,9,23,0.00,7,,43
2013-3-6,35,32,28,27,24,19,86,72,56,30.29,30.23,30.12,10,10,7,10,6,,0.00,8,Snow,337
2013-3-7,33,24,14,19,15,12,93,66,44,30.43,30.38,30.29,10,10,10,10,4,,0.00,1,,90
2013-3-8,37,22,8,27,18,5,93,76,56,30.46,30.39,30.28,10,10,4,9,1,,0.00,0,,176
2013-3-9,37,29,21,34,29,19,93,88,75,30.27,30.03,29.82,10,5,1,12,3,16,0.19,6,Rain-Snow,145
2013-3-10,37,34,32,36,33,32,100,92,81,29.86,29.80,29.69,10,5,0,20,5,29,0.32,8,Fog-Rain-Snow,36
2013-3-11,35,32,28,32,29,21,100,86,69,29.70,29.60,29.53,10,8,2,13,9,22,0.00,8,Snow,357
2013-3-12,32,28,23,25,19,12,80,67,55,29.98,29.80,29.69,10,10,2,15,7,24,0.00,7,Snow,284
2013-3-13,35,28,21,18,10,3,86,52,30,30.25,30.15,29.99,10,9,3,15,8,21,0.00,1,Snow,297
2013-3-14,35,25,15,27,13,5,80,55,28,30.26,30.16,29.98,10,10,10,10,3,,0.00,2,,227
2013-3-15,35,29,23,32,26,18,100,78,60,29.98,29.92,29.88,10,8,1,17,7,20,0.00,7,Snow,117
2013-3-16,32,26,19,19,14,10,86,63,44,30.09,29.98,29.90,10,8,1,13,9,18,0.00,6,Snow,338
2013-3-17,26,18,10,14,7,0,79,59,42,30.32,30.20,30.08,10,10,10,13,8,18,0.00,1,,63
2013-3-18,32,22,12,28,20,9,93,84,69,30.06,29.74,29.51,10,7,0,18,4,28,0.10,6,Snow,93
2013-3-19,30,24,17,14,10,5,80,59,43,29.93,29.73,29.56,10,9,2,23,14,33,0.00,2,Snow,268
2013-3-20,26,18,10,7,3,0,62,51,39,30.01,29.96,29.93,10,10,10,14,8,24,0.00,3,,285
2013-3-21,32,21,10,14,9,3,79,58,44,30.01,29.98,29.95,10,10,10,13,7,18,0.00,1,Snow,284
2013-3-22,37,24,12,19,15,9,86,67,41,30.06,30.02,29.98,10,10,10,9,2,,0.00,1,,288
2013-3-23,37,32,26,25,22,19,86,70,52,30.15,30.10,30.06,10,10,10,7,1,,0.00,7,,103
2013-3-24,33,30,28,27,22,18,80,69,60,30.10,29.97,29.86,10,10,10,16,7,21,0.00,7,,52
2013-3-25,37,32,26,25,22,18,80,67,52,30.11,29.97,29.87,10,10,10,16,10,22,0.00,5,,8
2013-3-26,41,36,32,28,24,21,81,62,45,30.22,30.16,30.11,10,10,10,10,5,,0.00,8,Rain,325
2013-3-27,44,38,32,27,20,18,75,51,34,30.28,30.25,30.22,10,10,10,13,5,18,0.00,3,,297
2013-3-28,46,35,24,21,18,16,80,51,29,30.32,30.28,30.24,10,10,10,12,2,9,0.00,0,,260
2013-3-29,48,36,23,23,20,18,80,53,30,30.31,30.26,30.19,10,10,10,7,1,,0.00,0,,190
2013-3-30,42,37,32,39,29,21,93,71,49,30.19,29.97,29.77,10,8,0,10,2,,0.04,6,Fog-Rain,209
2013-3-31,44,37,30,36,28,14,100,73,41,29.90,29.72,29.64,10,8,1,17,7,26,0.00,5,Snow,280